Time;durP1;ratioP1;P1;durP2;ratioP2;P2;SDS_P1;SDS_P2;PMS_P1;PMS_P2;Temp;Humidity;BMP_temperature;BMP_pressure;BME280_temperature;BME280_humidity;BME280_pressure;Samples;Min_cycle;Max_cycle;Signal;HPM_P1;HPM_P2
2022/12/08 00:01:43;;;;;;;20.65;11.52;;;;;;;0.17;100.00;100394.16;7396189;19;20037;-68
2022/12/08 00:04:12;;;;;;;18.52;11.70;;;;;;;0.20;100.00;100399.34;7395733;19;20505;-68
2022/12/08 00:09:28;;;;;;;19.80;11.13;;;;;;;0.25;100.00;100400.31;7395478;19;20050;-68
2022/12/08 00:11:59;;;;;;;18.42;10.80;;;;;;;0.27;100.00;100393.44;7396312;19;20014;-68
2022/12/08 00:14:30;;;;;;;19.27;11.00;;;;;;;0.29;100.00;100396.91;7395675;19;20018;-68
2022/12/08 00:17:00;;;;;;;18.80;11.13;;;;;;;0.27;100.00;100385.69;7394781;19;20039;-68
2022/12/08 00:19:29;;;;;;;25.08;11.98;;;;;;;0.32;100.00;100390.94;7394543;19;20480;-69
2022/12/08 00:21:58;;;;;;;15.55;10.57;;;;;;;0.34;100.00;100394.38;7394748;19;20018;-68
2022/12/08 00:24:33;;;;;;;20.60;10.60;;;;;;;0.35;100.00;100390.97;7395312;19;20018;-68
2022/12/08 00:27:02;;;;;;;17.33;10.70;;;;;;;0.35;100.00;100385.78;7393647;19;20015;-68
2022/12/08 00:29:30;;;;;;;20.02;10.80;;;;;;;0.32;100.00;100378.03;7393662;19;20014;-68
2022/12/08 00:31:59;;;;;;;17.27;10.70;;;;;;;0.37;100.00;100376.38;7395266;19;20031;-68
2022/12/08 00:34:27;;;;;;;17.70;10.10;;;;;;;0.36;100.00;100382.38;7394148;19;20023;-68
2022/12/08 00:36:56;;;;;;;16.40;9.18;;;;;;;0.37;100.00;100388.38;7392995;19;20014;-68
2022/12/08 00:39:24;;;;;;;17.90;9.95;;;;;;;0.37;100.00;100372.91;7394924;19;20010;-68
2022/12/08 00:44:36;;;;;;;15.95;10.35;;;;;;;0.35;100.00;100367.72;7395196;19;20010;-69
2022/12/08 00:47:05;;;;;;;13.88;9.45;;;;;;;0.34;100.00;100359.97;7393043;19;20018;-68
2022/12/08 00:49:34;;;;;;;15.95;9.05;;;;;;;0.32;100.00;100358.22;7394227;19;20019;-68
2022/12/08 00:52:03;;;;;;;16.15;9.35;;;;;;;0.31;100.00;100353.91;7394376;19;20031;-68
2022/12/08 00:54:31;;;;;;;12.50;8.52;;;;;;;0.31;100.00;100360.78;7392559;19;20372;-68
2022/12/08 00:57:02;;;;;;;13.55;8.98;;;;;;;0.29;100.00;100360.78;7393228;19;20022;-68
2022/12/08 00:59:31;;;;;;;13.40;8.65;;;;;;;0.27;100.00;100359.88;7394974;19;20074;-69
2022/12/08 01:01:59;;;;;;;13.38;8.15;;;;;;;0.26;100.00;100363.31;7394544;19;20014;-68
2022/12/08 01:04:28;;;;;;;13.43;9.23;;;;;;;0.26;100.00;100354.72;7394181;19;20022;-68
2022/12/08 01:06:56;;;;;;;14.48;9.25;;;;;;;0.25;100.00;100356.44;7392944;19;20022;-69
2022/12/08 01:09:25;;;;;;;15.85;8.98;;;;;;;0.25;100.00;100350.38;7393779;19;20019;-68
2022/12/08 01:11:53;;;;;;;12.65;8.80;;;;;;;0.25;100.00;100347.81;7393540;19;20014;-69
2022/12/08 01:14:24;;;;;;;14.57;9.10;;;;;;;0.24;100.00;100356.38;7393490;19;20036;-68
2022/12/08 01:16:53;;;;;;;12.75;9.20;;;;;;;0.23;100.00;100352.94;7391623;19;20505;-67
2022/12/08 01:19:22;;;;;;;14.60;9.73;;;;;;;0.23;100.00;100354.66;7393075;19;20024;-68
2022/12/08 01:21:50;;;;;;;13.65;9.30;;;;;;;0.22;100.00;100348.63;7392792;19;20492;-68
2022/12/08 01:24:21;;;;;;;14.02;8.68;;;;;;;0.22;100.00;100337.47;7393222;19;20019;-67
2022/12/08 01:26:51;;;;;;;15.80;9.18;;;;;;;0.22;100.00;100340.88;7391974;19;20018;-67
2022/12/08 01:29:20;;;;;;;15.23;9.07;;;;;;;0.21;100.00;100339.16;7393179;19;20019;-66
2022/12/08 01:31:51;;;;;;;15.13;8.90;;;;;;;0.22;100.00;100335.72;7395780;19;20033;-68
2022/12/08 01:34:19;;;;;;;15.27;9.70;;;;;;;0.22;100.00;100340.88;7397247;19;20078;-68
2022/12/08 01:36:48;;;;;;;14.27;9.35;;;;;;;0.22;100.00;100334.88;7398207;19;20363;-68
2022/12/08 01:39:19;;;;;;;15.18;10.07;;;;;;;0.22;100.00;100330.56;7399778;19;20480;-67
2022/12/08 01:41:49;;;;;;;20.33;11.32;;;;;;;0.22;100.00;100334.88;7397723;19;20019;-66
2022/12/08 01:44:47;;;;;;;20.25;12.40;;;;;;;0.23;100.00;100334.00;7399558;19;20422;-68
2022/12/08 01:47:18;;;;;;;19.15;11.10;;;;;;;0.22;100.00;100327.13;7397682;19;20014;-68
2022/12/08 01:49:48;;;;;;;18.77;11.32;;;;;;;0.22;100.00;100327.13;7397539;19;20363;-67
2022/12/08 01:52:23;;;;;;;19.05;10.85;;;;;;;0.21;100.00;100323.66;7397348;19;20018;-67
2022/12/08 01:54:57;;;;;;;19.60;11.82;;;;;;;0.22;100.00;100316.81;7400279;19;20014;-67
2022/12/08 01:57:28;;;;;;;;;;;;;;;0.22;100.00;100319.41;7398343;19;20070;-68
2022/12/08 02:00:02;;;;;;;20.42;11.82;;;;;;;0.20;100.00;100318.50;7399802;19;19932;-68
2022/12/08 02:02:40;;;;;;;21.73;11.98;;;;;;;0.19;100.00;100311.59;7400730;19;20032;-68
2022/12/08 02:05:11;;;;;;;19.20;11.05;;;;;;;0.20;100.00;100313.34;7400607;19;20029;-68
2022/12/08 02:07:39;;;;;;;22.05;11.70;;;;;;;0.20;100.00;100306.44;7400127;19;20019;-69
2022/12/08 02:10:09;;;;;;;22.00;11.57;;;;;;;0.15;100.00;100290.94;7401519;19;20018;-69
2022/12/08 02:12:38;;;;;;;20.70;12.02;;;;;;;0.20;100.00;100290.97;7401406;19;20019;-69
2022/12/08 02:15:08;;;;;;;20.75;12.00;;;;;;;0.20;100.00;100290.13;7399383;19;20366;-69
2022/12/08 02:17:51;;;;;;;22.75;12.32;;;;;;;0.20;100.00;100298.72;7397454;19;20014;-70
2022/12/08 02:20:47;;;;;;;21.95;12.70;;;;;;;0.21;100.00;100302.19;7399679;19;20014;-70
2022/12/08 02:23:32;;;;;;;21.30;12.13;;;;;;;0.21;100.00;100295.28;7399913;19;20032;-70
2022/12/08 02:26:37;;;;;;;24.52;13.93;;;;;;;0.21;100.00;100290.13;7398716;19;20022;-70
2022/12/08 02:29:33;;;;;;;23.25;12.77;;;;;;;0.20;100.00;100288.38;7399105;19;20015;-70
2022/12/08 02:32:23;;;;;;;29.75;14.63;;;;;;;0.21;100.00;100287.56;7399367;19;20369;-70
2022/12/08 02:35:01;;;;;;;24.30;12.75;;;;;;;0.21;100.00;100287.56;7398357;19;20010;-70
2022/12/08 02:37:34;;;;;;;32.22;14.65;;;;;;;0.22;100.00;100283.28;7397064;19;20027;-70
2022/12/08 02:40:08;;;;;;;28.10;15.43;;;;;;;0.25;100.00;100285.88;7399413;19;20039;-70
2022/12/08 02:42:39;;;;;;;;;;;;;;;0.25;100.00;100271.28;7399327;19;20355;-69
2022/12/08 02:45:14;;;;;;;29.67;14.57;;;;;;;0.26;100.00;100272.13;7398348;19;19931;-69
2022/12/08 02:47:42;;;;;;;27.33;14.30;;;;;;;0.27;100.00;100269.56;7399201;19;20010;-70
2022/12/08 02:50:14;;;;;;;28.50;14.15;;;;;;;0.29;100.00;100267.00;7396379;19;20022;-70
2022/12/08 02:52:47;;;;;;;30.63;15.00;;;;;;;0.30;100.00;100258.41;7398744;19;20015;-70
2022/12/08 02:55:24;;;;;;;28.70;14.82;;;;;;;0.31;100.00;100257.56;7398757;19;20014;-70
2022/12/08 02:58:17;;;;;;;30.83;14.52;;;;;;;0.34;100.00;100252.44;7398920;19;20015;-70
2022/12/08 03:00:58;;;;;;;29.17;14.32;;;;;;;0.36;100.00;100253.34;7397857;19;20485;-70
2022/12/08 03:03:35;;;;;;;31.48;15.50;;;;;;;0.37;100.00;100242.16;7398596;19;20022;-70
2022/12/08 03:06:19;;;;;;;31.55;16.50;;;;;;;0.36;100.00;100242.16;7396937;19;20018;-69
2022/12/08 03:08:53;;;;;;;30.42;16.08;;;;;;;0.39;100.00;100243.06;7398220;19;20039;-69
2022/12/08 03:11:26;;;;;;;29.42;15.20;;;;;;;0.40;100.00;100244.78;7396101;19;20489;-69
2022/12/08 03:13:59;;;;;;;25.48;15.05;;;;;;;0.41;100.00;100232.75;7398204;19;20026;-68
2022/12/08 03:16:29;;;;;;;28.02;15.57;;;;;;;0.43;100.00;100228.47;7396321;19;20438;-69
2022/12/08 03:19:03;;;;;;;32.28;16.02;;;;;;;0.41;100.00;100225.88;7397943;19;20026;-69
2022/12/08 03:21:36;;;;;;;28.90;14.52;;;;;;;0.42;100.00;100230.19;7398024;19;20485;-69
2022/12/08 03:24:08;;;;;;;31.73;16.10;;;;;;;0.44;100.00;100225.91;7401263;19;20010;-69
2022/12/08 03:26:45;;;;;;;30.55;15.30;;;;;;;0.45;100.00;100227.63;7402818;19;20365;-70
2022/12/08 03:29:14;;;;;;;28.85;15.77;;;;;;;0.45;100.00;100219.88;7401322;19;20019;-69
2022/12/08 03:31:48;;;;;;;32.58;15.60;;;;;;;0.47;100.00;100219.91;7395756;19;20011;-70
2022/12/08 03:34:19;;;;;;;31.40;16.77;;;;;;;0.49;100.00;100220.78;7396729;19;20481;-70
2022/12/08 03:36:56;;;;;;;33.55;16.88;;;;;;;0.52;100.00;100214.78;7394340;19;20010;-69
2022/12/08 03:39:25;;;;;;;28.63;16.65;;;;;;;0.52;100.00;100213.09;7395556;19;20019;-69
2022/12/08 03:41:53;;;;;;;36.80;17.73;;;;;;;0.53;100.00;100203.63;7396857;19;20070;-70
2022/12/08 03:44:22;;;;;;;33.33;16.65;;;;;;;0.54;100.00;100203.63;7396818;19;20015;-70
2022/12/08 03:46:50;;;;;;;31.33;16.13;;;;;;;0.58;100.00;100207.13;7395504;19;20022;-70
2022/12/08 03:49:19;;;;;;;33.08;16.65;;;;;;;0.60;100.00;100206.28;7394650;19;20354;-70
2022/12/08 03:51:47;;;;;;;34.28;16.48;;;;;;;0.61;100.00;100207.16;7394748;19;20014;-70
2022/12/08 03:54:18;;;;;;;30.25;16.85;;;;;;;0.63;100.00;100203.75;7395227;19;20480;-70
2022/12/08 03:56:47;;;;;;;32.53;17.30;;;;;;;0.65;100.00;100198.59;7392581;19;20363;-70
2022/12/08 03:59:15;;;;;;;40.33;18.20;;;;;;;0.67;100.00;100194.31;7396337;19;20019;-70
2022/12/08 04:01:44;;;;;;;33.08;18.33;;;;;;;0.69;100.00;100190.00;7396149;19;20018;-70
2022/12/08 04:04:13;;;;;;;40.35;21.23;;;;;;;0.70;100.00;100190.91;7396158;19;20078;-70
2022/12/08 04:06:41;;;;;;;41.42;18.48;;;;;;;0.71;100.00;100188.31;7394937;19;20018;-70
2022/12/08 04:09:10;;;;;;;33.47;17.30;;;;;;;0.71;100.00;100183.16;7394338;19;20036;-70
2022/12/08 04:11:41;;;;;;;33.63;17.10;;;;;;;0.72;100.00;100184.00;7394654;19;20015;-70
2022/12/08 04:14:09;;;;;;;36.25;18.17;;;;;;;0.74;100.00;100174.56;7394401;19;20371;-70
2022/12/08 04:16:38;;;;;;;31.95;16.88;;;;;;;0.75;100.00;100179.75;7394973;19;20026;-70
2022/12/08 04:19:06;;;;;;;37.38;18.45;;;;;;;0.75;100.00;100184.91;7395160;19;20484;-70
2022/12/08 04:21:35;;;;;;;42.53;21.55;;;;;;;0.76;100.00;100176.31;7395619;19;20030;-70
2022/12/08 04:24:04;;;;;;;34.20;18.38;;;;;;;0.77;100.00;100183.22;7396037;19;20023;-69
2022/12/08 04:26:32;;;;;;;36.72;18.00;;;;;;;0.77;100.00;100178.06;7394005;19;20385;-69
2022/12/08 04:29:03;;;;;;;32.28;18.83;;;;;;;0.78;100.00;100179.78;7395083;19;20028;-69
2022/12/08 04:31:32;;;;;;;35.40;18.02;;;;;;;0.79;100.00;100176.34;7394705;19;20082;-70
2022/12/08 04:34:00;;;;;;;34.80;17.58;;;;;;;0.79;100.00;100176.34;7394811;19;20362;-69
2022/12/08 04:36:29;;;;;;;33.08;18.50;;;;;;;0.79;100.00;100170.31;7393305;19;20027;-70
2022/12/08 04:38:57;;;;;;;32.80;17.58;;;;;;;0.79;100.00;100178.91;7395114;19;20018;-70
2022/12/08 04:41:26;;;;;;;34.33;18.58;;;;;;;0.79;100.00;100178.91;7393208;19;20023;-70
2022/12/08 04:43:54;;;;;;;36.58;18.05;;;;;;;0.79;100.00;100173.75;7394905;19;20036;-69
2022/12/08 04:46:25;;;;;;;36.60;17.80;;;;;;;0.78;100.00;100166.88;7394242;19;20086;-70
2022/12/08 04:48:54;;;;;;;31.25;16.77;;;;;;;0.78;100.00;100174.63;7394559;19;20018;-70
2022/12/08 04:51:22;;;;;;;34.55;18.23;;;;;;;0.78;100.00;100166.88;7394032;19;20032;-70
2022/12/08 04:53:51;;;;;;;34.75;16.80;;;;;;;0.77;100.00;100170.31;7394467;19;20014;-69
2022/12/08 04:56:21;;;;;;;31.17;16.13;;;;;;;0.76;100.00;100171.16;7393780;19;20018;-70
2022/12/08 04:58:49;;;;;;;31.85;17.00;;;;;;;0.77;100.00;100166.84;7394407;19;20031;-69
2022/12/08 05:01:17;;;;;;;32.67;17.35;;;;;;;0.77;100.00;100172.00;7393969;19;20426;-69
2022/12/08 05:03:49;;;;;;;31.67;16.83;;;;;;;0.75;100.00;100166.84;7392634;19;20082;-71
2022/12/08 05:06:17;;;;;;;36.38;17.58;;;;;;;0.75;100.00;100159.09;7394320;19;20035;-69
2022/12/08 05:08:45;;;;;;;35.45;16.80;;;;;;;0.76;100.00;100160.81;7401732;19;20085;-69
2022/12/08 05:11:15;;;;;;;35.85;16.77;;;;;;;0.76;100.00;100159.97;7400141;19;20022;-69
2022/12/08 05:13:44;;;;;;;35.00;16.60;;;;;;;0.76;100.00;100159.97;7401212;19;20422;-70
2022/12/08 05:16:14;;;;;;;28.50;15.98;;;;;;;0.75;100.00;100158.25;7400400;19;20022;-69
2022/12/08 05:18:44;;;;;;;34.03;15.73;;;;;;;0.76;100.00;100158.25;7401773;19;20022;-70
2022/12/08 05:21:15;;;;;;;32.80;17.48;;;;;;;0.76;100.00;100157.38;7401049;19;20014;-70
2022/12/08 05:23:43;;;;;;;36.58;17.55;;;;;;;0.75;100.00;100159.09;7401524;19;20031;-69
2022/12/08 05:26:11;;;;;;;33.35;16.65;;;;;;;0.75;100.00;100147.91;7399799;19;20477;-69
2022/12/08 05:28:40;;;;;;;33.15;15.40;;;;;;;0.74;100.00;100141.84;7401120;19;20018;-69
2022/12/08 05:31:08;;;;;;;34.50;16.85;;;;;;;0.75;100.00;100153.94;7399862;19;20473;-69
2022/12/08 05:33:37;;;;;;;35.53;17.25;;;;;;;0.75;100.00;100151.34;7400393;19;20010;-69
2022/12/08 05:36:06;;;;;;;31.40;17.42;;;;;;;0.76;100.00;100147.91;7396985;19;20062;-70
2022/12/08 05:38:37;;;;;;;31.85;16.17;;;;;;;0.75;100.00;100148.75;7400593;19;20022;-70
2022/12/08 05:41:07;;;;;;;36.40;17.35;;;;;;;0.76;100.00;100141.91;7400754;19;20026;-70
2022/12/08 05:43:35;;;;;;;33.70;17.17;;;;;;;0.76;100.00;100140.16;7400982;19;20043;-70
2022/12/08 05:46:04;;;;;;;31.20;16.33;;;;;;;0.76;100.00;100145.34;7399047;19;20022;-70
2022/12/08 05:48:33;;;;;;;35.28;17.58;;;;;;;0.75;100.00;100150.50;7399488;19;20085;-70
2022/12/08 05:51:01;;;;;;;33.03;16.48;;;;;;;0.77;100.00;100146.19;7399200;19;20022;-70
2022/12/08 05:53:30;;;;;;;37.80;18.15;;;;;;;0.77;100.00;100156.50;7399948;19;20011;-70
2022/12/08 05:56:01;;;;;;;35.85;17.13;;;;;;;0.76;100.00;100157.38;7398165;19;20422;-69
2022/12/08 05:58:29;;;;;;;39.28;17.08;;;;;;;0.76;100.00;100149.66;7401026;19;20022;-69
2022/12/08 06:00:58;;;;;;;35.25;17.27;;;;;;;0.77;100.00;100157.41;7399786;19;20396;-70
2022/12/08 06:03:26;;;;;;;33.13;17.73;;;;;;;0.77;100.00;100162.56;7400106;19;20082;-71
2022/12/08 06:05:55;;;;;;;34.00;16.58;;;;;;;0.78;100.00;100153.97;7396407;19;20086;-69
2022/12/08 06:08:23;;;;;;;35.75;17.08;;;;;;;0.78;100.00;100159.13;7397161;19;20102;-70
2022/12/08 06:10:52;;;;;;;41.55;19.10;;;;;;;0.80;100.00;100151.38;7398467;19;20548;-69
2022/12/08 06:13:23;;;;;;;34.80;16.92;;;;;;;0.80;100.00;100144.50;7399642;19;20086;-69
2022/12/08 06:15:51;;;;;;;36.17;16.90;;;;;;;0.80;100.00;100149.66;7398894;19;20018;-70
2022/12/08 06:18:20;;;;;;;40.95;18.52;;;;;;;0.80;100.00;100154.81;7395798;19;20476;-70
2022/12/08 06:20:49;;;;;;;40.17;18.25;;;;;;;0.80;100.00;100146.22;7398155;19;20014;-73
2022/12/08 06:23:17;;;;;;;33.45;16.20;;;;;;;0.80;100.00;100148.81;7396034;19;20010;-72
2022/12/08 06:25:46;;;;;;;42.08;18.95;;;;;;;0.78;100.00;100141.06;7397817;19;20404;-69
2022/12/08 06:28:14;;;;;;;39.88;19.33;;;;;;;0.78;100.00;100145.34;7398630;19;20014;-70
2022/12/08 06:30:45;;;;;;;37.10;18.40;;;;;;;0.78;100.00;100142.75;7398677;19;20422;-70
2022/12/08 06:33:14;;;;;;;38.38;18.02;;;;;;;0.72;100.00;100143.59;7399122;19;20414;-69
2022/12/08 06:35:49;;;;;;;39.35;18.13;;;;;;;0.77;100.00;100148.75;7396806;19;20027;-71
2022/12/08 06:38:23;;;;;;;36.47;18.38;;;;;;;0.75;100.00;100150.50;7397983;19;20110;-72
2022/12/08 06:40:56;;;;;;;39.55;18.25;;;;;;;0.75;100.00;100150.50;7398526;19;20094;-72
2022/12/08 06:43:25;;;;;;;41.08;19.48;;;;;;;0.75;100.00;100151.34;7398702;19;20022;-73
2022/12/08 06:45:56;;;;;;;40.78;18.45;;;;;;;0.74;100.00;100146.16;7397679;19;20429;-72
2022/12/08 06:48:24;;;;;;;38.67;18.15;;;;;;;0.73;100.00;100160.78;7398836;19;20022;-72
2022/12/08 06:50:53;;;;;;;40.22;19.42;;;;;;;0.72;100.00;100148.75;7398062;19;20380;-72
2022/12/08 06:53:21;;;;;;;37.05;18.42;;;;;;;0.70;100.00;100150.44;7398120;19;20430;-70
2022/12/08 06:55:54;;;;;;;35.25;18.10;;;;;;;0.72;100.00;100159.06;7395898;19;20019;-73
2022/12/08 06:58:23;;;;;;;36.75;18.48;;;;;;;0.73;100.00;100155.63;7396717;19;20015;-71
2022/12/08 07:00:52;;;;;;;37.10;18.40;;;;;;;0.73;100.00;100160.78;7398101;19;20018;-71
2022/12/08 07:03:23;;;;;;;35.88;19.13;;;;;;;0.74;100.00;100159.09;7395959;19;20018;-71
2022/12/08 07:05:52;;;;;;;32.42;17.52;;;;;;;0.73;100.00;100160.78;7397495;19;20031;-70
2022/12/08 07:08:20;;;;;;;33.38;18.40;;;;;;;0.69;100.00;100151.28;7397205;19;20477;-72
2022/12/08 07:10:48;;;;;;;36.85;18.52;;;;;;;0.75;100.00;100158.25;7397660;19;20039;-72
2022/12/08 07:13:17;;;;;;;32.00;17.83;;;;;;;0.74;100.00;100154.78;7396221;19;20427;-71
2022/12/08 07:15:45;;;;;;;39.58;18.13;;;;;;;0.74;100.00;100162.50;7398875;19;20070;-72
2022/12/08 07:18:14;;;;;;;36.45;19.02;;;;;;;0.73;100.00;100163.38;7397246;19;20380;-72
2022/12/08 07:20:45;;;;;;;36.38;18.75;;;;;;;0.76;100.00;100166.00;7397428;19;20031;-71
2022/12/08 07:23:13;;;;;;;35.53;17.77;;;;;;;0.77;100.00;100162.56;7397543;19;20014;-72
2022/12/08 07:25:42;;;;;;;39.22;19.73;;;;;;;0.79;100.00;100160.84;7396538;19;20014;-71
2022/12/08 07:28:12;;;;;;;35.60;18.67;;;;;;;0.81;100.00;100159.16;7396372;19;20071;-72
2022/12/08 07:30:41;;;;;;;34.00;17.55;;;;;;;0.84;100.00;100157.47;7395823;19;20036;-72
2022/12/08 07:33:09;;;;;;;32.53;18.33;;;;;;;0.89;100.00;100155.78;7394609;19;20074;-73
2022/12/08 07:35:38;;;;;;;37.17;19.70;;;;;;;0.90;100.00;100155.78;7395669;19;20022;-72
2022/12/08 07:38:12;;;;;;;34.00;17.50;;;;;;;0.93;100.00;100160.09;7397227;19;20031;-72
2022/12/08 07:40:40;;;;;;;33.55;18.17;;;;;;;0.95;100.00;100159.25;7394365;19;20010;-71
2022/12/08 07:43:09;;;;;;;38.67;17.73;;;;;;;0.98;100.00;100158.41;7394115;19;20018;-71
2022/12/08 07:45:38;;;;;;;33.20;18.25;;;;;;;1.01;100.00;100160.16;7397193;19;20023;-71
2022/12/08 07:48:07;;;;;;;33.45;18.63;;;;;;;1.00;100.00;100150.69;7395721;19;20019;-71
2022/12/08 07:50:36;;;;;;;32.60;18.17;;;;;;;1.03;100.00;100150.72;7395772;19;20472;-71
2022/12/08 07:53:04;;;;;;;32.97;17.92;;;;;;;1.06;100.00;100156.78;7394850;19;20446;-72
2022/12/08 07:55:36;;;;;;;32.50;18.10;;;;;;;1.09;100.00;100153.34;7396050;19;20043;-73
2022/12/08 07:58:04;;;;;;;33.25;17.75;;;;;;;1.09;100.00;100151.63;7395680;19;20028;-70
2022/12/08 08:00:32;;;;;;;34.20;17.15;;;;;;;1.06;100.00;100143.84;7395497;19;20022;-72
2022/12/08 08:03:01;;;;;;;32.95;17.52;;;;;;;1.13;100.00;100155.09;7393757;19;20074;-72
2022/12/08 08:05:30;;;;;;;35.75;18.85;;;;;;;1.14;100.00;100152.50;7395280;19;20035;-68
2022/12/08 08:07:58;;;;;;;33.47;18.58;;;;;;;1.17;100.00;100148.22;7395504;19;20011;-70
2022/12/08 08:10:27;;;;;;;29.40;17.38;;;;;;;1.20;100.00;100153.41;7395931;19;20026;-71
2022/12/08 08:13:00;;;;;;;29.67;17.80;;;;;;;1.21;100.00;100160.31;7394097;19;20018;-69
2022/12/08 08:15:29;;;;;;;30.95;18.50;;;;;;;1.23;100.00;100166.38;7394787;19;20022;-70
2022/12/08 08:17:58;;;;;;;31.45;17.17;;;;;;;1.24;100.00;100163.78;7393301;19;20518;-69
2022/12/08 08:20:26;;;;;;;31.58;17.13;;;;;;;1.29;100.00;100166.41;7394936;19;20488;-69
2022/12/08 08:22:55;;;;;;;31.40;17.73;;;;;;;1.32;100.00;100163.84;7395322;19;20018;-69
2022/12/08 08:25:24;;;;;;;34.22;18.33;;;;;;;1.37;100.00;100158.72;7393686;19;20039;-69
2022/12/08 08:27:52;;;;;;;28.75;17.77;;;;;;;1.39;100.00;100156.97;7396680;19;20019;-69
2022/12/08 08:30:23;;;;;;;29.02;18.35;;;;;;;1.41;100.00;100156.13;7399433;19;20035;-71
2022/12/08 08:32:52;;;;;;;29.30;16.50;;;;;;;1.44;100.00;100148.41;7395892;19;20034;-69
2022/12/08 08:35:21;;;;;;;29.17;17.05;;;;;;;1.45;100.00;100144.97;7394149;19;20036;-70
2022/12/08 08:37:49;;;;;;;31.08;18.63;;;;;;;1.48;100.00;100145.84;7392967;19;20082;-70
2022/12/08 08:40:18;;;;;;;34.42;18.98;;;;;;;1.50;100.00;100154.47;7394473;19;20032;-70
2022/12/08 08:42:47;;;;;;;29.17;17.08;;;;;;;1.52;100.00;100155.34;7400844;19;20126;-70
2022/12/08 08:45:15;;;;;;;30.17;17.80;;;;;;;1.54;100.00;100157.09;7402304;19;20027;-70
2022/12/08 08:47:46;;;;;;;30.52;17.30;;;;;;;1.56;100.00;100162.28;7401860;19;20018;-69
2022/12/08 08:50:15;;;;;;;30.50;17.35;;;;;;;1.60;100.00;100158.84;7402031;19;20375;-69
2022/12/08 08:52:43;;;;;;;29.20;17.15;;;;;;;1.61;100.00;100155.41;7400209;19;20424;-69
2022/12/08 08:55:12;;;;;;;27.40;16.30;;;;;;;1.63;100.00;100148.50;7402238;19;20031;-69
2022/12/08 08:57:41;;;;;;;26.80;15.95;;;;;;;1.65;100.00;100153.69;7402040;19;20033;-69
2022/12/08 09:00:11;;;;;;;26.15;16.02;;;;;;;1.65;100.00;100154.56;7401567;19;20018;-69
2022/12/08 09:02:40;;;;;;;27.23;15.93;;;;;;;1.66;100.00;100161.47;7399042;19;20021;-69
2022/12/08 09:05:12;;;;;;;28.67;16.67;;;;;;;1.70;100.00;100152.84;7401381;19;20031;-69
2022/12/08 09:07:40;;;;;;;29.60;16.80;;;;;;;1.71;99.73;100151.16;7399204;19;20017;-74
2022/12/08 09:10:10;;;;;;;29.42;16.77;;;;;;;1.74;99.93;100148.56;7398737;19;20030;-69
2022/12/08 09:12:39;;;;;;;27.67;15.93;;;;;;;1.75;99.49;100156.31;7399768;19;20551;-68
2022/12/08 09:15:08;;;;;;;25.55;15.65;;;;;;;1.77;100.00;100153.78;7401391;19;20031;-68
2022/12/08 09:17:37;;;;;;;30.98;17.75;;;;;;;1.81;100.00;100154.63;7398473;19;20086;-69
2022/12/08 09:20:07;;;;;;;30.75;16.83;;;;;;;1.85;100.00;100153.81;7401240;19;20099;-69
2022/12/08 09:22:38;;;;;;;31.92;17.92;;;;;;;1.87;100.00;100144.31;7400485;19;20015;-69
2022/12/08 09:25:07;;;;;;;29.67;17.02;;;;;;;1.95;100.00;100146.06;7398365;19;20010;-69
2022/12/08 09:27:35;;;;;;;31.20;17.10;;;;;;;2.02;100.00;100151.25;7397855;19;20433;-69
2022/12/08 09:30:04;;;;;;;26.23;16.02;;;;;;;2.07;100.00;100142.69;7400801;19;20023;-69
2022/12/08 09:32:32;;;;;;;30.08;15.57;;;;;;;2.13;99.78;100138.38;7399892;19;20106;-69
2022/12/08 09:35:01;;;;;;;24.55;14.85;;;;;;;2.17;99.35;100142.69;7400656;19;20022;-69
2022/12/08 09:37:29;;;;;;;29.48;16.83;;;;;;;2.21;99.17;100144.44;7397300;19;20010;-69
2022/12/08 09:40:00;;;;;;;23.92;15.00;;;;;;;2.22;97.73;100138.41;7397696;19;20106;-69
2022/12/08 09:42:46;;;;;;;23.27;15.80;;;;;;;2.27;98.05;100132.38;7397348;19;20015;-69
2022/12/08 09:45:17;;;;;;;24.02;15.05;;;;;;;2.33;97.66;100133.25;7400209;19;20078;-69
2022/12/08 09:47:49;;;;;;;21.30;14.73;;;;;;;2.37;97.38;100130.66;7400456;19;20378;-69
2022/12/08 09:50:24;;;;;;;23.52;14.63;;;;;;;2.42;96.24;100128.09;7400266;19;20022;-69
2022/12/08 09:53:06;;;;;;;25.85;15.90;;;;;;;2.48;96.53;100129.81;7397444;19;20023;-69
2022/12/08 09:56:02;;;;;;;20.92;14.65;;;;;;;2.52;96.92;100121.22;7398822;19;20010;-69
2022/12/08 09:58:46;;;;;;;24.30;15.07;;;;;;;2.58;96.74;100118.63;7400219;19;20039;-69
2022/12/08 10:01:15;;;;;;;22.60;15.67;;;;;;;2.61;95.90;100123.78;7397733;19;20057;-69
2022/12/08 10:03:45;;;;;;;22.20;14.27;;;;;;;2.64;96.04;100116.03;7399281;19;20026;-69
2022/12/08 10:06:22;;;;;;;22.45;14.55;;;;;;;2.68;95.59;100119.47;7398431;19;20021;-69
2022/12/08 10:09:04;;;;;;;18.40;13.35;;;;;;;2.72;95.88;100116.91;7399786;19;20078;-69
2022/12/08 10:11:45;;;;;;;23.83;13.80;;;;;;;2.78;96.22;100118.63;7399948;19;20026;-69
2022/12/08 10:14:26;;;;;;;21.60;13.90;;;;;;;2.82;95.29;100122.06;7396423;19;20074;-69
2022/12/08 10:17:00;;;;;;;19.58;14.13;;;;;;;2.84;94.48;100120.34;7397773;19;20035;-70
2022/12/08 10:19:30;;;;;;;21.85;14.57;;;;;;;2.83;94.38;100109.13;7399871;19;20022;-69
2022/12/08 10:21:59;;;;;;;22.27;14.70;;;;;;;2.84;95.97;100104.81;7398906;19;20022;-69
2022/12/08 10:24:36;;;;;;;22.73;14.48;;;;;;;2.85;94.42;100103.94;7398427;19;20014;-69
2022/12/08 10:27:12;;;;;;;18.20;13.55;;;;;;;2.85;93.91;100098.75;7397374;19;20018;-69
2022/12/08 10:29:41;;;;;;;19.88;12.93;;;;;;;2.87;93.53;100102.19;7396653;19;20007;-69
2022/12/08 10:32:15;;;;;;;18.48;13.02;;;;;;;2.88;92.60;100101.34;7397981;19;20129;-69
2022/12/08 10:35:03;;;;;;;21.02;13.30;;;;;;;2.90;93.68;100090.09;7398840;19;20027;-69
2022/12/08 10:37:38;;;;;;;21.63;12.80;;;;;;;2.97;94.46;100090.09;7395519;19;20024;-73
2022/12/08 10:40:17;;;;;;;17.70;11.73;;;;;;;2.98;93.68;100103.06;7398422;19;20090;-69
2022/12/08 10:42:50;;;;;;;20.00;12.93;;;;;;;3.03;92.17;100100.47;7398019;19;20027;-69
2022/12/08 10:45:28;;;;;;;20.17;12.77;;;;;;;3.04;93.81;100095.28;7396493;19;20046;-69
2022/12/08 10:48:03;;;;;;;18.55;12.80;;;;;;;3.07;93.24;100100.47;7396486;19;20041;-69
2022/12/08 10:50:36;;;;;;;18.63;14.13;;;;;;;3.08;94.32;100094.44;7398489;19;20029;-68
2022/12/08 10:53:13;;;;;;;17.48;12.30;;;;;;;3.10;93.40;100090.09;7397732;19;20014;-70
2022/12/08 10:55:45;;;;;;;20.00;13.23;;;;;;;3.13;94.19;100089.22;7398099;19;20022;-69
2022/12/08 10:58:34;;;;;;;19.60;13.20;;;;;;;3.14;92.63;100087.50;7396143;19;20086;-70
2022/12/08 11:01:06;;;;;;;19.35;13.00;;;;;;;3.12;93.29;100082.31;7397146;19;20018;-70
2022/12/08 11:03:38;;;;;;;21.80;13.07;;;;;;;3.13;93.56;100081.44;7396418;19;20032;-70
2022/12/08 11:06:15;;;;;;;18.20;12.88;;;;;;;3.13;92.19;100083.19;7396909;19;20039;-69
2022/12/08 11:08:53;;;;;;;21.38;13.80;;;;;;;3.09;93.55;100078.00;7398014;19;20066;-69
2022/12/08 11:11:23;;;;;;;18.88;13.23;;;;;;;3.12;92.92;100076.28;7398335;19;20086;-69
2022/12/08 11:13:54;;;;;;;18.67;12.55;;;;;;;3.10;91.75;100065.91;7395756;19;20556;-68
2022/12/08 11:16:25;;;;;;;21.95;12.63;;;;;;;3.10;92.68;100074.53;7396667;19;20018;-69
2022/12/08 11:18:58;;;;;;;21.55;13.43;;;;;;;3.08;91.85;100073.69;7397599;19;20011;-69
2022/12/08 11:21:37;;;;;;;19.20;14.10;;;;;;;3.07;94.02;100071.97;7397887;19;20014;-69
2022/12/08 11:24:30;;;;;;;19.92;12.02;;;;;;;3.06;91.96;100071.97;7397290;19;20011;-69
2022/12/08 11:27:02;;;;;;;18.90;12.68;;;;;;;3.02;93.05;100068.53;7395003;19;20015;-69
2022/12/08 11:29:35;;;;;;;21.35;12.90;;;;;;;3.05;93.66;100072.84;7396836;19;20110;-69
2022/12/08 11:32:06;;;;;;;24.38;13.82;;;;;;;3.02;94.24;100065.94;7397533;19;20031;-69
2022/12/08 11:34:38;;;;;;;21.45;13.95;;;;;;;3.02;94.48;100063.34;7395200;19;20028;-70
2022/12/08 11:37:10;;;;;;;20.38;13.38;;;;;;;3.01;94.11;100066.78;7394398;19;20014;-70